Wroughton, United Kingdom
Current Conditions -  °F | °C
As of 4:04 AM on Saturday 25 Oct 2014 (Local Time) from EGVA Reporting Station
Haze Haze  
Wind Chill: 43°   Ceiling: Unl
Heat Index: 43°   Visibility: 1.7mi
Dew Point: 41°   Wind: 3mph
Humidity: 93%   Direction: 260°W
Pressure: 30"   Gusts: NA
Location:  51.52°N, 1.8°W
Report Text: EGVA 250304Z AUTO 26003KT 2800 R27/1100 BR CLR 06/05 A3000 RMK AO2 VIS 2800V9999
Loading
Personal Weather Stations






























Interactive Weather Map New forecast layout! Learn more

10-Day Weather Forecast

Advertisements
Track Severe Weather on mobile